x

Boston 16 Nm East Of Boston, Ma (44013) Wave Buoy

11:50 - Sat 23rd Jul 2016 All times are EDT. -4 hours from GMT.

  • Sig Wave height 1.0ft
  • Peak Period 5s
  • Wind
    4mph
  • Sea Temp 73°f
  • Ar Temp 76°f
  • Sea Pressure 1007.1mb
  • Boston 16 Nm East Of Boston, Ma
  • Boston 16 Nm East Of Boston, Ma

More Historic Weather Station data

Upgrade to MSW Pro to gain access to the past 30 days of data for over 8000 Wavebouys and Weather Stations around the globe.

Join Pro

Comparision Forecast

View Surf forecast
   
Sáb 07/23 11:50 1ft 5s  -  4
mph
1007.1mb 73f 76f
10:50 1ft 6s 5s 4
mph
1007.2mb 72f 75f
9:50 1ft 8s 4s 2
mph
1007.3mb 71f 73f
8:50 1ft 9s 4s 9
mph
1007.6mb 70f 72f
7:50 1ft 4s 4s 9 11 mph 1007.6mb 69f 71f
6:50 1ft 4s 3s 9 11 mph 1007.4mb 69f 70f
5:50 1ft 2s 3s 11 13 mph 1007.1mb 69f 70f
4:50 1ft 3s 3s 11 13 mph 1006.8mb 69f 71f
3:50 1.3ft 3s 3s 11 13 mph 1006.4mb 68f 71f
2:50 1.3ft 3s 3s 11 13 mph 1006.4mb 68f 72f
1:50 1.3ft 3s 3s 13
mph
1006.9mb 68f 73f
12:50 1.3ft 3s 3s 18 20 mph 1006.5mb 69f 74f
Sex 07/22 11:50 1.3ft 5s 4s 13 16 mph 1006.8mb 69f 73f
10:50 1.6ft 3s 3s 16 18 mph 1006.9mb 69f 73f
9:50 1.6ft 4s 3s 16 20 mph 1006.9mb 69f 75f
8:50 2ft 4s 3s 13 16 mph 1006.6mb 70f 76f
7:50 2ft 4s 3s 18 22 mph 1006mb 70f 78f
6:50 2ft 3s 3s 18 20 mph 1005.6mb 70f 78f
5:50 2ft 4s 3s 16 20 mph 1005.9mb 70f 80f
4:50 2ft 3s 3s 16 18 mph 1006.1mb 71f 79f
3:50 2ft 4s 4s 11 16 mph 1006.5mb 71f 79f
2:50 1.6ft 3s 3s 13 20 mph 1007mb 71f 81f
1:50 1.3ft 3s 3s 9 11 mph 1007.7mb 70f 78f
12:50 1.3ft 3s 3s 9 11 mph 1008.3mb 70f 77f
11:50 1.3ft 3s 3s 11 13 mph 1009.3mb 69f 76f
10:50 1.3ft 3s 3s 11
mph
1010.1mb 69f 74f
9:50 1.6ft 3s 3s 11
mph
1010.8mb 69f 74f
8:50 2ft 3s 3s 18 20 mph 1011.2mb 69f 74f
7:50 2.5ft 3s 3s 16 18 mph 1012mb 69f 73f
6:50 2.5ft 3s 3s 18 22 mph 1012.2mb 69f 72f
5:50 2ft 3s 3s 20 25 mph 1012.1mb 69f 72f
4:50 1.3ft 3s 3s 18 20 mph 1012.4mb 69f 71f
3:50 1.3ft 3s 3s 16 18 mph 1012.8mb 69f 71f
2:50 1.3ft 3s 3s 16 18 mph 1013mb 69f 71f
1:50 1ft 9s 3s 13 16 mph 1013.7mb 69f 72f
12:50 1.3ft 3s 3s 13 16 mph 1014.1mb 69f 72f
Qui 07/21 11:50 1.3ft 2s 3s 11 13 mph 1014.7mb 69f 73f
10:50 1.3ft 3s 3s 13 18 mph 1015mb 70f 74f
9:50 1.3ft 4s 3s 13 16 mph 1015.3mb 70f 74f
8:50 1.6ft 4s 3s 16 18 mph 1014.9mb 70f 75f
7:50 1ft 10s 4s 13 16 mph 1014.9mb 71f 76f
6:50 1ft 11s 4s 11 13 mph 1015mb 71f 76f
4:50 0.7ft  -  4s 7 9 mph 1015.9mb 71f 73f
3:50 1ft 2s 3s 11 13 mph 1016.3mb 71f 74f
2:50 0.7ft  -  4s 13
mph
1016.7mb 71f 73f
1:50 0.7ft  -  5s 4 7 mph 1017.4mb 71f 74f
12:50 0.7ft  -  4s 7
mph
1017.9mb 72f 77f
11:50 0.7ft  -  5s 2
mph
1019.1mb 71f 74f
10:50 0.7ft  -  5s 4 7 mph 1019.5mb 70f 72f
9:50 0.7ft  -  6s 7
mph
1019.9mb 69f 71f
7:50 0.7ft  -  5s 9 11 mph 1020.6mb 68f 68f
6:50 0.7ft  -  6s 11
mph
1020.6mb 68f 69f
5:50 0.7ft  -  6s 11 13 mph 1020mb 68f 67f
4:50 0.7ft  -  6s 7 9 mph 1019.6mb 68f 69f
3:50 0.7ft  -  6s 7 9 mph 1019.2mb 68f 69f
2:50 0.7ft  -  6s 7 9 mph 1019.7mb 68f 69f
1:50 0.7ft  -  6s 7 9 mph 1019.9mb 68f 70f
12:50 0.7ft  -  5s 7
mph
1019.8mb 69f 71f
Qua 07/20 11:50 0.7ft  -  5s 4
mph
1020.2mb 69f 70f
10:50 1ft 5s 4s 4 7 mph 1020mb 69f 72f
9:50 1ft 7s 4s 9
mph
1019.7mb 69f 72f
8:50 1ft 3s 3s 7 9 mph 1019.2mb 69f 72f
7:50 1ft 6s 4s 9
mph
1019mb 69f 73f
6:50 1ft 6s 4s 9
mph
1018.6mb 70f 74f
5:50 1ft 7s 4s 7 9 mph 1018.5mb 70f 74f
4:50 0.7ft  -  5s 7 9 mph 1018.7mb 71f 75f
3:50 0.7ft  -  5s 4
mph
1019.1mb 71f 74f
2:50 0.7ft  -  4s 4 7 mph 1019.7mb 70f 72f
1:50 0.7ft  -  4s 4
mph
1020.2mb 69f 71f
12:50 0.7ft  -  4s 4 7 mph 1020.7mb 69f 71f
11:50 1ft 6s 4s 4 7 mph 1021.2mb 68f 69f
10:50 1ft 3s 3s 7
mph
1022mb 68f 69f
9:50 1.3ft 3s 3s 9 11 mph 1022.1mb 67f 68f
8:50 1.3ft 3s 3s 13 16 mph 1022.2mb 67f 67f
7:50 1.3ft 3s 3s 13 16 mph 1021.9mb 67f 66f
6:50 1.6ft 3s 3s 11 13 mph 1021.3mb 68f 66f
5:50 1.6ft 3s 3s 16 18 mph 1021mb 68f 66f
4:50 1.6ft 3s 3s 16 20 mph 1020.6mb 68f 67f
3:50 1.3ft 3s 3s 18 20 mph 1020.2mb 68f 67f
2:50 1ft 2s 3s 13 16 mph 1019.9mb 68f 67f
1:50 1ft 2s 3s 13 18 mph 1019.8mb 69f 68f
12:50 1ft 4s 4s 11 13 mph 1020mb 69f 69f
Ter 07/19 11:50 1ft 4s 4s 13
mph
1019.6mb 69f 70f
10:50 1.3ft 4s 4s 9 11 mph 1019.4mb 69f 70f
9:50 1.3ft 3s 3s 9
mph
1019.3mb 69f 71f
8:50 1.6ft 3s 3s 9 11 mph 1018.5mb 69f 71f
6:50 1ft 10s 4s 16 20 mph 1017.3mb 70f 73f
5:50 0.7ft  -  4s 2 4 mph 1017.1mb 70f 70f